This is the latest recevied weather packets stored in our database for station/object K2MRS. If no packets are shown the sender has not sent any weather packets the latest 10 day(s).
| Time | Temp. | Humidity | Pressure | Rain* | Wind** | Luminosity | Snow |
|---|---|---|---|---|---|---|---|
| 1777510053 | 20.56° C | 49% | 1016.4 hPa | 0 mm | - | 415 W/m² | - |
| 1777509623 | 20.56° C | 49% | 1016.7 hPa | 0 mm | - | 436 W/m² | - |
| 1777509323 | 20.56° C | 48% | 1016.6 hPa | 0 mm | - | 452 W/m² | - |
| 1777508553 | 21.11° C | 47% | 1016.8 hPa | 0 mm | - | 508 W/m² | - |
| 1777508121 | 21.11° C | 47% | 1016.8 hPa | 0 mm | - | 526 W/m² | - |
| 1777507646 | 21.11° C | 50% | 1016.9 hPa | 0 mm | - | 552 W/m² | - |
| 1777383282 | 7.22° C | 93% | 1019.8 hPa | 0 mm | - | 11 W/m² | - |
| 1777381782 | 7.22° C | 93% | 1019.6 hPa | 0 mm | - | 0 W/m² | - |
| 1777380879 | 7.22° C | 93% | 1019.4 hPa | 0 mm | - | 0 W/m² | - |
| 1777380579 | 7.22° C | 93% | 1019.4 hPa | 0 mm | - | 0 W/m² | - |
| 1777379378 | 7.22° C | 93% | 1019.5 hPa | 0 mm | - | 0 W/m² | - |
| 1777379078 | 7.22° C | 92% | 1019.5 hPa | 0 mm | - | 0 W/m² | - |
| 1777378778 | 7.22° C | 92% | 1019.4 hPa | 0 mm | - | 0 W/m² | - |
| 1777378478 | 7.22° C | 92% | 1019.4 hPa | 0 mm | - | 0 W/m² | - |
| 1777378179 | 7.22° C | 92% | 1019.4 hPa | 0 mm | - | 0 W/m² | - |
| 1777377878 | 7.22° C | 93% | 1019.3 hPa | 0 mm | - | 0 W/m² | - |
| 1777377578 | 7.22° C | 92% | 1019.3 hPa | 0 mm | - | 0 W/m² | - |
| 1777377279 | 7.78° C | 92% | 1019.2 hPa | 0 mm | - | 0 W/m² | - |
| 1777376676 | 7.78° C | 92% | 1019.2 hPa | 0 mm | - | 0 W/m² | - |
| 1777376191 | 7.78° C | 92% | 1019.3 hPa | 0 mm | - | 0 W/m² | - |
| 1777375901 | 7.78° C | 92% | 1019.2 hPa | 0 mm | - | 0 W/m² | - |
| 1777375474 | 7.78° C | 92% | 1019.1 hPa | 0 mm | - | 0 W/m² | - |
| 1777375174 | 7.78° C | 92% | 1019.1 hPa | 0 mm | - | 0 W/m² | - |
| 1777374401 | 7.78° C | 92% | 1019.2 hPa | 0 mm | - | 0 W/m² | - |
| 1777372470 | 7.78° C | 92% | 1019.1 hPa | 0 mm | - | 0 W/m² | - |
* Rain latest hour (hover to see other rain measurements)
** Current wind speed in m/s (hover to see current wind gust speed)